sensor_id;sensor_type;location;lat;lon;timestamp;P1;durP1;ratioP1;P2;durP2;ratioP2
40088;SDS011;25793;55.706;13.186;2022-12-07T00:01:15;379.58;;;348.27;;
40088;SDS011;25793;55.706;13.186;2022-12-07T00:04:02;373.20;;;342.30;;
40088;SDS011;25793;55.706;13.186;2022-12-07T00:06:43;375.30;;;344.17;;
40088;SDS011;25793;55.706;13.186;2022-12-07T00:09:15;371.92;;;340.90;;
40088;SDS011;25793;55.706;13.186;2022-12-07T00:11:42;370.27;;;339.25;;
40088;SDS011;25793;55.706;13.186;2022-12-07T00:14:11;361.05;;;330.13;;
40088;SDS011;25793;55.706;13.186;2022-12-07T00:16:40;367.73;;;336.37;;
40088;SDS011;25793;55.706;13.186;2022-12-07T00:19:09;365.50;;;334.02;;
40088;SDS011;25793;55.706;13.186;2022-12-07T00:21:37;352.03;;;321.07;;
40088;SDS011;25793;55.706;13.186;2022-12-07T00:24:04;362.05;;;330.67;;
40088;SDS011;25793;55.706;13.186;2022-12-07T00:26:35;359.20;;;327.70;;
40088;SDS011;25793;55.706;13.186;2022-12-07T00:29:05;357.40;;;326.08;;
40088;SDS011;25793;55.706;13.186;2022-12-07T00:31:36;366.05;;;334.15;;
40088;SDS011;25793;55.706;13.186;2022-12-07T00:34:05;369.58;;;337.38;;
40088;SDS011;25793;55.706;13.186;2022-12-07T00:36:34;374.35;;;341.95;;
40088;SDS011;25793;55.706;13.186;2022-12-07T00:39:00;371.52;;;339.15;;
40088;SDS011;25793;55.706;13.186;2022-12-07T00:41:28;370.25;;;338.10;;
40088;SDS011;25793;55.706;13.186;2022-12-07T00:43:56;375.95;;;343.45;;
40088;SDS011;25793;55.706;13.186;2022-12-07T00:46:23;366.13;;;334.23;;
40088;SDS011;25793;55.706;13.186;2022-12-07T00:48:51;381.27;;;348.48;;
40088;SDS011;25793;55.706;13.186;2022-12-07T00:51:18;398.38;;;364.65;;
40088;SDS011;25793;55.706;13.186;2022-12-07T00:53:47;384.70;;;351.53;;
40088;SDS011;25793;55.706;13.186;2022-12-07T00:56:16;377.45;;;344.33;;
40088;SDS011;25793;55.706;13.186;2022-12-07T01:01:26;367.65;;;335.35;;
40088;SDS011;25793;55.706;13.186;2022-12-07T01:03:54;377.15;;;344.40;;
40088;SDS011;25793;55.706;13.186;2022-12-07T01:06:21;376.75;;;343.75;;
40088;SDS011;25793;55.706;13.186;2022-12-07T01:08:49;381.75;;;348.55;;
40088;SDS011;25793;55.706;13.186;2022-12-07T01:11:18;390.63;;;357.08;;
40088;SDS011;25793;55.706;13.186;2022-12-07T01:13:47;386.73;;;353.13;;
40088;SDS011;25793;55.706;13.186;2022-12-07T01:16:16;386.20;;;352.65;;
40088;SDS011;25793;55.706;13.186;2022-12-07T01:18:45;376.83;;;343.83;;
40088;SDS011;25793;55.706;13.186;2022-12-07T01:21:14;386.63;;;353.43;;
40088;SDS011;25793;55.706;13.186;2022-12-07T01:23:47;375.53;;;342.80;;
40088;SDS011;25793;55.706;13.186;2022-12-07T01:26:15;372.65;;;340.13;;
40088;SDS011;25793;55.706;13.186;2022-12-07T01:28:44;367.85;;;333.70;;
40088;SDS011;25793;55.706;13.186;2022-12-07T01:31:12;387.30;;;353.73;;
40088;SDS011;25793;55.706;13.186;2022-12-07T01:33:42;384.98;;;351.88;;
40088;SDS011;25793;55.706;13.186;2022-12-07T01:36:13;384.90;;;351.60;;
40088;SDS011;25793;55.706;13.186;2022-12-07T01:38:40;384.33;;;350.75;;
40088;SDS011;25793;55.706;13.186;2022-12-07T01:41:07;381.02;;;347.35;;
40088;SDS011;25793;55.706;13.186;2022-12-07T01:43:34;382.08;;;348.45;;
40088;SDS011;25793;55.706;13.186;2022-12-07T01:46:01;382.45;;;349.05;;
40088;SDS011;25793;55.706;13.186;2022-12-07T01:48:32;382.42;;;348.98;;
40088;SDS011;25793;55.706;13.186;2022-12-07T01:51:08;387.20;;;353.50;;
40088;SDS011;25793;55.706;13.186;2022-12-07T01:53:39;389.85;;;355.88;;
40088;SDS011;25793;55.706;13.186;2022-12-07T01:56:13;386.77;;;353.10;;
40088;SDS011;25793;55.706;13.186;2022-12-07T01:58:46;385.17;;;351.52;;
40088;SDS011;25793;55.706;13.186;2022-12-07T02:01:13;382.10;;;348.88;;
40088;SDS011;25793;55.706;13.186;2022-12-07T02:03:41;389.67;;;355.90;;
40088;SDS011;25793;55.706;13.186;2022-12-07T02:06:10;383.40;;;350.10;;
40088;SDS011;25793;55.706;13.186;2022-12-07T02:08:40;384.38;;;350.75;;
40088;SDS011;25793;55.706;13.186;2022-12-07T02:11:08;382.08;;;348.58;;
40088;SDS011;25793;55.706;13.186;2022-12-07T02:13:36;390.45;;;356.40;;
40088;SDS011;25793;55.706;13.186;2022-12-07T02:16:09;379.15;;;345.50;;
40088;SDS011;25793;55.706;13.186;2022-12-07T02:21:23;390.15;;;356.02;;
40088;SDS011;25793;55.706;13.186;2022-12-07T02:24:14;381.25;;;347.35;;
40088;SDS011;25793;55.706;13.186;2022-12-07T02:27:04;388.40;;;354.20;;
40088;SDS011;25793;55.706;13.186;2022-12-07T02:32:28;392.48;;;357.65;;
40088;SDS011;25793;55.706;13.186;2022-12-07T02:35:17;383.58;;;349.27;;
40088;SDS011;25793;55.706;13.186;2022-12-07T02:40:42;377.55;;;343.33;;
40088;SDS011;25793;55.706;13.186;2022-12-07T02:45:50;385.40;;;350.75;;
40088;SDS011;25793;55.706;13.186;2022-12-07T02:48:19;394.60;;;359.33;;
40088;SDS011;25793;55.706;13.186;2022-12-07T02:50:50;385.23;;;350.25;;
40088;SDS011;25793;55.706;13.186;2022-12-07T02:53:28;391.75;;;356.50;;
40088;SDS011;25793;55.706;13.186;2022-12-07T02:55:55;380.87;;;346.53;;
40088;SDS011;25793;55.706;13.186;2022-12-07T02:58:34;389.42;;;354.77;;
40088;SDS011;25793;55.706;13.186;2022-12-07T03:01:13;392.50;;;357.77;;
40088;SDS011;25793;55.706;13.186;2022-12-07T03:03:48;386.75;;;352.25;;
40088;SDS011;25793;55.706;13.186;2022-12-07T03:06:31;393.40;;;358.45;;
40088;SDS011;25793;55.706;13.186;2022-12-07T03:09:14;389.23;;;354.63;;
40088;SDS011;25793;55.706;13.186;2022-12-07T03:11:59;383.23;;;348.70;;
40088;SDS011;25793;55.706;13.186;2022-12-07T03:14:31;383.88;;;349.38;;
40088;SDS011;25793;55.706;13.186;2022-12-07T03:17:06;397.60;;;362.40;;
40088;SDS011;25793;55.706;13.186;2022-12-07T03:19:33;392.67;;;357.67;;
40088;SDS011;25793;55.706;13.186;2022-12-07T03:22:03;395.83;;;360.83;;
40088;SDS011;25793;55.706;13.186;2022-12-07T03:24:38;388.73;;;354.08;;
40088;SDS011;25793;55.706;13.186;2022-12-07T03:27:16;386.73;;;351.92;;
40088;SDS011;25793;55.706;13.186;2022-12-07T03:29:48;388.05;;;353.30;;
40088;SDS011;25793;55.706;13.186;2022-12-07T03:32:53;391.77;;;356.58;;
40088;SDS011;25793;55.706;13.186;2022-12-07T03:35:27;387.50;;;352.70;;
40088;SDS011;25793;55.706;13.186;2022-12-07T03:38:04;383.13;;;348.42;;
40088;SDS011;25793;55.706;13.186;2022-12-07T03:43:46;390.80;;;355.70;;
40088;SDS011;25793;55.706;13.186;2022-12-07T03:46:18;390.37;;;355.20;;
40088;SDS011;25793;55.706;13.186;2022-12-07T03:54:56;404.05;;;368.10;;
40088;SDS011;25793;55.706;13.186;2022-12-07T03:57:39;403.30;;;367.30;;
40088;SDS011;25793;55.706;13.186;2022-12-07T04:00:09;402.60;;;366.75;;
40088;SDS011;25793;55.706;13.186;2022-12-07T04:02:40;420.48;;;383.60;;
40088;SDS011;25793;55.706;13.186;2022-12-07T04:05:10;410.13;;;373.65;;
40088;SDS011;25793;55.706;13.186;2022-12-07T04:07:37;412.50;;;375.73;;
40088;SDS011;25793;55.706;13.186;2022-12-07T04:10:04;410.48;;;373.92;;
40088;SDS011;25793;55.706;13.186;2022-12-07T04:12:31;398.10;;;362.30;;
40088;SDS011;25793;55.706;13.186;2022-12-07T04:14:58;402.73;;;366.73;;
40088;SDS011;25793;55.706;13.186;2022-12-07T04:17:24;394.70;;;359.38;;
40088;SDS011;25793;55.706;13.186;2022-12-07T04:19:51;403.92;;;368.17;;
40088;SDS011;25793;55.706;13.186;2022-12-07T04:22:17;395.42;;;360.20;;
40088;SDS011;25793;55.706;13.186;2022-12-07T04:24:44;400.20;;;364.58;;
40088;SDS011;25793;55.706;13.186;2022-12-07T04:27:11;396.87;;;361.40;;
40088;SDS011;25793;55.706;13.186;2022-12-07T04:29:37;397.08;;;361.45;;
40088;SDS011;25793;55.706;13.186;2022-12-07T04:32:04;394.65;;;359.27;;
40088;SDS011;25793;55.706;13.186;2022-12-07T04:34:31;405.98;;;370.10;;
40088;SDS011;25793;55.706;13.186;2022-12-07T04:36:57;391.85;;;356.40;;
40088;SDS011;25793;55.706;13.186;2022-12-07T04:39:28;404.27;;;368.17;;
40088;SDS011;25793;55.706;13.186;2022-12-07T04:41:56;395.80;;;360.15;;
40088;SDS011;25793;55.706;13.186;2022-12-07T04:44:23;409.50;;;373.15;;
40088;SDS011;25793;55.706;13.186;2022-12-07T04:46:51;411.40;;;374.90;;
40088;SDS011;25793;55.706;13.186;2022-12-07T04:49:18;415.98;;;379.17;;
40088;SDS011;25793;55.706;13.186;2022-12-07T04:51:45;413.50;;;376.90;;
40088;SDS011;25793;55.706;13.186;2022-12-07T04:54:12;430.98;;;393.13;;
40088;SDS011;25793;55.706;13.186;2022-12-07T04:56:40;424.25;;;386.88;;
40088;SDS011;25793;55.706;13.186;2022-12-07T04:59:09;431.73;;;393.38;;
40088;SDS011;25793;55.706;13.186;2022-12-07T05:01:37;426.90;;;389.23;;
40088;SDS011;25793;55.706;13.186;2022-12-07T05:04:04;410.13;;;373.33;;
40088;SDS011;25793;55.706;13.186;2022-12-07T05:06:31;399.63;;;363.53;;
40088;SDS011;25793;55.706;13.186;2022-12-07T05:08:58;390.27;;;354.75;;
40088;SDS011;25793;55.706;13.186;2022-12-07T05:11:24;402.50;;;366.00;;
40088;SDS011;25793;55.706;13.186;2022-12-07T05:14:14;393.42;;;357.30;;
40088;SDS011;25793;55.706;13.186;2022-12-07T05:16:43;393.10;;;357.07;;
40088;SDS011;25793;55.706;13.186;2022-12-07T05:19:12;393.08;;;356.95;;
40088;SDS011;25793;55.706;13.186;2022-12-07T05:21:39;409.42;;;372.25;;
40088;SDS011;25793;55.706;13.186;2022-12-07T05:24:07;417.43;;;379.57;;
40088;SDS011;25793;55.706;13.186;2022-12-07T05:26:37;391.48;;;355.48;;
40088;SDS011;25793;55.706;13.186;2022-12-07T05:29:07;402.55;;;365.63;;
40088;SDS011;25793;55.706;13.186;2022-12-07T05:31:34;394.45;;;358.35;;
40088;SDS011;25793;55.706;13.186;2022-12-07T05:34:01;383.70;;;348.52;;
40088;SDS011;25793;55.706;13.186;2022-12-07T05:36:27;380.88;;;346.33;;
40088;SDS011;25793;55.706;13.186;2022-12-07T05:38:55;378.90;;;344.37;;
40088;SDS011;25793;55.706;13.186;2022-12-07T05:41:21;383.50;;;348.60;;
40088;SDS011;25793;55.706;13.186;2022-12-07T05:44:07;390.13;;;354.52;;
40088;SDS011;25793;55.706;13.186;2022-12-07T05:46:34;386.40;;;351.00;;
40088;SDS011;25793;55.706;13.186;2022-12-07T05:49:00;367.02;;;333.23;;
40088;SDS011;25793;55.706;13.186;2022-12-07T05:51:27;374.00;;;339.42;;
40088;SDS011;25793;55.706;13.186;2022-12-07T05:53:54;379.48;;;344.02;;
40088;SDS011;25793;55.706;13.186;2022-12-07T05:56:21;377.60;;;342.70;;
40088;SDS011;25793;55.706;13.186;2022-12-07T05:58:47;372.20;;;338.02;;
40088;SDS011;25793;55.706;13.186;2022-12-07T06:01:33;362.50;;;328.73;;
40088;SDS011;25793;55.706;13.186;2022-12-07T06:03:59;374.52;;;339.88;;
40088;SDS011;25793;55.706;13.186;2022-12-07T06:06:26;367.45;;;333.20;;
40088;SDS011;25793;55.706;13.186;2022-12-07T06:08:53;351.83;;;318.20;;
40088;SDS011;25793;55.706;13.186;2022-12-07T06:11:21;369.00;;;335.20;;
40088;SDS011;25793;55.706;13.186;2022-12-07T06:14:06;364.25;;;330.40;;
40088;SDS011;25793;55.706;13.186;2022-12-07T06:16:33;359.13;;;325.42;;
40088;SDS011;25793;55.706;13.186;2022-12-07T06:18:59;362.73;;;329.13;;
40088;SDS011;25793;55.706;13.186;2022-12-07T06:21:26;380.55;;;346.48;;
40088;SDS011;25793;55.706;13.186;2022-12-07T06:23:53;377.90;;;343.95;;
40088;SDS011;25793;55.706;13.186;2022-12-07T06:26:20;367.30;;;333.70;;
40088;SDS011;25793;55.706;13.186;2022-12-07T06:28:47;372.77;;;338.88;;
40088;SDS011;25793;55.706;13.186;2022-12-07T06:31:14;375.08;;;341.27;;
40088;SDS011;25793;55.706;13.186;2022-12-07T06:33:41;371.85;;;338.05;;
40088;SDS011;25793;55.706;13.186;2022-12-07T06:36:08;392.15;;;356.35;;
40088;SDS011;25793;55.706;13.186;2022-12-07T06:38:35;369.98;;;336.77;;
40088;SDS011;25793;55.706;13.186;2022-12-07T06:41:02;364.38;;;331.88;;
40088;SDS011;25793;55.706;13.186;2022-12-07T06:43:29;372.08;;;338.58;;
40088;SDS011;25793;55.706;13.186;2022-12-07T06:45:55;382.45;;;348.88;;
40088;SDS011;25793;55.706;13.186;2022-12-07T06:48:22;384.33;;;350.33;;
40088;SDS011;25793;55.706;13.186;2022-12-07T06:50:49;378.10;;;344.42;;
40088;SDS011;25793;55.706;13.186;2022-12-07T06:53:20;376.98;;;342.88;;
40088;SDS011;25793;55.706;13.186;2022-12-07T06:55:48;379.35;;;344.95;;
40088;SDS011;25793;55.706;13.186;2022-12-07T06:58:14;384.50;;;349.35;;
40088;SDS011;25793;55.706;13.186;2022-12-07T07:00:41;377.60;;;342.73;;
40088;SDS011;25793;55.706;13.186;2022-12-07T07:03:08;375.75;;;340.88;;
40088;SDS011;25793;55.706;13.186;2022-12-07T07:05:35;382.13;;;346.25;;
40088;SDS011;25793;55.706;13.186;2022-12-07T07:08:02;386.48;;;350.67;;
40088;SDS011;25793;55.706;13.186;2022-12-07T07:10:49;384.67;;;349.08;;
40088;SDS011;25793;55.706;13.186;2022-12-07T07:13:16;378.45;;;342.98;;
40088;SDS011;25793;55.706;13.186;2022-12-07T07:15:42;371.15;;;336.33;;
40088;SDS011;25793;55.706;13.186;2022-12-07T07:18:09;374.15;;;339.40;;
40088;SDS011;25793;55.706;13.186;2022-12-07T07:20:36;379.05;;;343.80;;
40088;SDS011;25793;55.706;13.186;2022-12-07T07:23:04;368.05;;;333.15;;
40088;SDS011;25793;55.706;13.186;2022-12-07T07:25:30;360.95;;;326.42;;
40088;SDS011;25793;55.706;13.186;2022-12-07T07:27:57;360.77;;;325.42;;
40088;SDS011;25793;55.706;13.186;2022-12-07T07:30:24;347.70;;;313.17;;
40088;SDS011;25793;55.706;13.186;2022-12-07T07:32:51;354.48;;;319.67;;
40088;SDS011;25793;55.706;13.186;2022-12-07T07:35:23;349.13;;;314.73;;
40088;SDS011;25793;55.706;13.186;2022-12-07T07:37:50;345.50;;;311.73;;
40088;SDS011;25793;55.706;13.186;2022-12-07T07:40:17;348.08;;;313.10;;
40088;SDS011;25793;55.706;13.186;2022-12-07T07:42:46;354.30;;;319.48;;
40088;SDS011;25793;55.706;13.186;2022-12-07T07:45:14;356.60;;;321.50;;
40088;SDS011;25793;55.706;13.186;2022-12-07T07:47:41;364.52;;;328.80;;
40088;SDS011;25793;55.706;13.186;2022-12-07T07:50:08;354.55;;;319.42;;
40088;SDS011;25793;55.706;13.186;2022-12-07T07:52:35;354.83;;;319.55;;
40088;SDS011;25793;55.706;13.186;2022-12-07T07:55:02;395.90;;;357.02;;
40088;SDS011;25793;55.706;13.186;2022-12-07T07:57:29;366.17;;;330.90;;
40088;SDS011;25793;55.706;13.186;2022-12-07T07:59:55;356.15;;;321.15;;
40088;SDS011;25793;55.706;13.186;2022-12-07T08:02:22;356.00;;;321.10;;
40088;SDS011;25793;55.706;13.186;2022-12-07T08:04:49;356.77;;;321.75;;
40088;SDS011;25793;55.706;13.186;2022-12-07T08:07:16;383.17;;;346.45;;
40088;SDS011;25793;55.706;13.186;2022-12-07T08:09:43;361.27;;;326.95;;
40088;SDS011;25793;55.706;13.186;2022-12-07T08:12:09;353.95;;;320.00;;
40088;SDS011;25793;55.706;13.186;2022-12-07T08:14:36;354.97;;;320.87;;
40088;SDS011;25793;55.706;13.186;2022-12-07T08:17:02;361.40;;;327.58;;
40088;SDS011;25793;55.706;13.186;2022-12-07T08:19:29;369.90;;;335.17;;
40088;SDS011;25793;55.706;13.186;2022-12-07T08:21:56;375.63;;;340.60;;
40088;SDS011;25793;55.706;13.186;2022-12-07T08:24:22;370.90;;;336.40;;
40088;SDS011;25793;55.706;13.186;2022-12-07T08:26:49;365.45;;;331.08;;
40088;SDS011;25793;55.706;13.186;2022-12-07T08:29:16;360.73;;;326.92;;
40088;SDS011;25793;55.706;13.186;2022-12-07T08:31:43;355.42;;;321.80;;
40088;SDS011;25793;55.706;13.186;2022-12-07T08:34:10;350.20;;;316.80;;
40088;SDS011;25793;55.706;13.186;2022-12-07T08:36:38;349.77;;;316.77;;
40088;SDS011;25793;55.706;13.186;2022-12-07T08:39:05;348.10;;;314.85;;
40088;SDS011;25793;55.706;13.186;2022-12-07T08:41:52;359.17;;;325.70;;
40088;SDS011;25793;55.706;13.186;2022-12-07T08:44:18;352.48;;;319.23;;
40088;SDS011;25793;55.706;13.186;2022-12-07T08:46:55;350.35;;;317.05;;
40088;SDS011;25793;55.706;13.186;2022-12-07T08:49:33;349.30;;;316.38;;
40088;SDS011;25793;55.706;13.186;2022-12-07T08:52:04;348.00;;;315.10;;
40088;SDS011;25793;55.706;13.186;2022-12-07T08:54:31;355.60;;;321.60;;
40088;SDS011;25793;55.706;13.186;2022-12-07T08:57:01;334.70;;;303.23;;
40088;SDS011;25793;55.706;13.186;2022-12-07T08:59:28;343.75;;;311.65;;
40088;SDS011;25793;55.706;13.186;2022-12-07T09:01:55;354.10;;;321.83;;
40088;SDS011;25793;55.706;13.186;2022-12-07T09:04:22;345.95;;;314.27;;
40088;SDS011;25793;55.706;13.186;2022-12-07T09:06:49;340.27;;;308.67;;
40088;SDS011;25793;55.706;13.186;2022-12-07T09:09:15;372.90;;;338.73;;
40088;SDS011;25793;55.706;13.186;2022-12-07T09:11:42;335.63;;;304.83;;
40088;SDS011;25793;55.706;13.186;2022-12-07T09:14:11;331.83;;;300.75;;
40088;SDS011;25793;55.706;13.186;2022-12-07T09:16:39;330.92;;;299.73;;
40088;SDS011;25793;55.706;13.186;2022-12-07T09:19:06;334.17;;;302.98;;
40088;SDS011;25793;55.706;13.186;2022-12-07T09:21:34;366.00;;;332.20;;
40088;SDS011;25793;55.706;13.186;2022-12-07T09:24:00;331.33;;;300.77;;
40088;SDS011;25793;55.706;13.186;2022-12-07T09:26:27;326.90;;;297.05;;
40088;SDS011;25793;55.706;13.186;2022-12-07T09:28:53;334.48;;;304.45;;
40088;SDS011;25793;55.706;13.186;2022-12-07T09:31:20;342.05;;;311.80;;
40088;SDS011;25793;55.706;13.186;2022-12-07T09:33:57;325.75;;;295.95;;
40088;SDS011;25793;55.706;13.186;2022-12-07T09:36:26;317.23;;;287.95;;
40088;SDS011;25793;55.706;13.186;2022-12-07T09:38:53;331.80;;;301.80;;
40088;SDS011;25793;55.706;13.186;2022-12-07T09:41:20;344.15;;;312.25;;
40088;SDS011;25793;55.706;13.186;2022-12-07T09:43:48;325.67;;;295.58;;
40088;SDS011;25793;55.706;13.186;2022-12-07T09:46:17;331.88;;;301.65;;
40088;SDS011;25793;55.706;13.186;2022-12-07T09:48:46;323.05;;;293.95;;
40088;SDS011;25793;55.706;13.186;2022-12-07T09:51:17;320.20;;;291.33;;
40088;SDS011;25793;55.706;13.186;2022-12-07T09:53:51;321.98;;;293.48;;
40088;SDS011;25793;55.706;13.186;2022-12-07T09:56:20;309.33;;;281.45;;
40088;SDS011;25793;55.706;13.186;2022-12-07T09:58:49;308.67;;;280.67;;
40088;SDS011;25793;55.706;13.186;2022-12-07T10:01:18;318.03;;;289.03;;
40088;SDS011;25793;55.706;13.186;2022-12-07T10:03:51;333.83;;;304.23;;
40088;SDS011;25793;55.706;13.186;2022-12-07T10:06:19;319.30;;;290.80;;
40088;SDS011;25793;55.706;13.186;2022-12-07T10:08:46;330.80;;;302.00;;
40088;SDS011;25793;55.706;13.186;2022-12-07T10:11:13;342.00;;;312.55;;
40088;SDS011;25793;55.706;13.186;2022-12-07T10:13:46;337.08;;;307.77;;
40088;SDS011;25793;55.706;13.186;2022-12-07T10:18:51;342.27;;;312.38;;
40088;SDS011;25793;55.706;13.186;2022-12-07T10:21:19;334.53;;;305.33;;
40088;SDS011;25793;55.706;13.186;2022-12-07T10:24:04;347.53;;;316.93;;
40088;SDS011;25793;55.706;13.186;2022-12-07T10:32:34;337.42;;;307.33;;
40088;SDS011;25793;55.706;13.186;2022-12-07T10:34:40;344.15;;;314.02;;
40088;SDS011;25793;55.706;13.186;2022-12-07T10:39:46;332.52;;;302.83;;
40088;SDS011;25793;55.706;13.186;2022-12-07T10:44:46;341.15;;;310.88;;
40088;SDS011;25793;55.706;13.186;2022-12-07T10:52:45;365.35;;;334.20;;
40088;SDS011;25793;55.706;13.186;2022-12-07T10:55:33;364.85;;;333.77;;
40088;SDS011;25793;55.706;13.186;2022-12-07T11:09:35;367.95;;;333.65;;
40088;SDS011;25793;55.706;13.186;2022-12-07T11:15:24;327.63;;;297.83;;
40088;SDS011;25793;55.706;13.186;2022-12-07T11:23:45;369.60;;;336.10;;
40088;SDS011;25793;55.706;13.186;2022-12-07T11:26:20;339.13;;;307.92;;
40088;SDS011;25793;55.706;13.186;2022-12-07T11:34:24;349.35;;;317.25;;
40088;SDS011;25793;55.706;13.186;2022-12-07T11:37:17;331.17;;;300.48;;
40088;SDS011;25793;55.706;13.186;2022-12-07T11:39:52;347.77;;;316.15;;
40088;SDS011;25793;55.706;13.186;2022-12-07T11:42:24;337.92;;;307.02;;
40088;SDS011;25793;55.706;13.186;2022-12-07T11:44:59;351.02;;;318.55;;
40088;SDS011;25793;55.706;13.186;2022-12-07T11:50:18;347.98;;;316.55;;
40088;SDS011;25793;55.706;13.186;2022-12-07T11:53:17;337.55;;;306.52;;
40088;SDS011;25793;55.706;13.186;2022-12-07T12:01:13;329.33;;;299.33;;
40088;SDS011;25793;55.706;13.186;2022-12-07T12:03:50;330.48;;;300.48;;
40088;SDS011;25793;55.706;13.186;2022-12-07T12:06:20;335.63;;;304.95;;
40088;SDS011;25793;55.706;13.186;2022-12-07T12:09:34;343.20;;;311.98;;
40088;SDS011;25793;55.706;13.186;2022-12-07T12:18:09;354.52;;;322.70;;
40088;SDS011;25793;55.706;13.186;2022-12-07T12:21:09;362.33;;;328.95;;
40088;SDS011;25793;55.706;13.186;2022-12-07T12:23:45;349.37;;;317.67;;
40088;SDS011;25793;55.706;13.186;2022-12-07T12:26:21;348.52;;;316.67;;
40088;SDS011;25793;55.706;13.186;2022-12-07T12:29:00;336.90;;;305.45;;
40088;SDS011;25793;55.706;13.186;2022-12-07T12:31:35;344.90;;;313.50;;
40088;SDS011;25793;55.706;13.186;2022-12-07T12:36:56;348.95;;;317.10;;
40088;SDS011;25793;55.706;13.186;2022-12-07T12:39:23;332.70;;;301.25;;
40088;SDS011;25793;55.706;13.186;2022-12-07T12:41:55;343.73;;;309.85;;
40088;SDS011;25793;55.706;13.186;2022-12-07T12:51:52;337.05;;;306.30;;
40088;SDS011;25793;55.706;13.186;2022-12-07T12:54:35;348.38;;;316.98;;
40088;SDS011;25793;55.706;13.186;2022-12-07T12:59:36;350.30;;;318.52;;
40088;SDS011;25793;55.706;13.186;2022-12-07T13:15:49;382.60;;;348.67;;
40088;SDS011;25793;55.706;13.186;2022-12-07T13:37:29;358.67;;;325.52;;
40088;SDS011;25793;55.706;13.186;2022-12-07T13:40:20;353.45;;;321.23;;
40088;SDS011;25793;55.706;13.186;2022-12-07T13:42:48;360.42;;;327.95;;
40088;SDS011;25793;55.706;13.186;2022-12-07T13:45:29;368.08;;;334.88;;
40088;SDS011;25793;55.706;13.186;2022-12-07T13:50:55;362.73;;;330.52;;
40088;SDS011;25793;55.706;13.186;2022-12-07T13:53:23;366.02;;;333.30;;
40088;SDS011;25793;55.706;13.186;2022-12-07T13:55:50;358.30;;;325.52;;
40088;SDS011;25793;55.706;13.186;2022-12-07T13:58:24;356.95;;;324.10;;
40088;SDS011;25793;55.706;13.186;2022-12-07T14:00:53;368.67;;;335.27;;
40088;SDS011;25793;55.706;13.186;2022-12-07T14:03:25;365.75;;;332.92;;
40088;SDS011;25793;55.706;13.186;2022-12-07T14:06:31;387.63;;;351.15;;
40088;SDS011;25793;55.706;13.186;2022-12-07T14:09:07;352.58;;;320.67;;
40088;SDS011;25793;55.706;13.186;2022-12-07T14:11:46;351.38;;;319.42;;
40088;SDS011;25793;55.706;13.186;2022-12-07T14:14:25;355.15;;;322.65;;
40088;SDS011;25793;55.706;13.186;2022-12-07T14:17:09;362.38;;;328.83;;
40088;SDS011;25793;55.706;13.186;2022-12-07T14:19:43;356.83;;;324.53;;
40088;SDS011;25793;55.706;13.186;2022-12-07T14:27:33;356.13;;;324.25;;
40088;SDS011;25793;55.706;13.186;2022-12-07T14:30:04;345.02;;;313.48;;
40088;SDS011;25793;55.706;13.186;2022-12-07T14:32:42;352.08;;;319.10;;
40088;SDS011;25793;55.706;13.186;2022-12-07T14:35:15;358.58;;;326.77;;
40088;SDS011;25793;55.706;13.186;2022-12-07T14:37:44;356.33;;;324.85;;
40088;SDS011;25793;55.706;13.186;2022-12-07T14:40:15;352.10;;;320.58;;
40088;SDS011;25793;55.706;13.186;2022-12-07T14:42:51;351.65;;;320.05;;
40088;SDS011;25793;55.706;13.186;2022-12-07T14:45:21;367.33;;;334.10;;
40088;SDS011;25793;55.706;13.186;2022-12-07T14:47:49;356.27;;;324.05;;
40088;SDS011;25793;55.706;13.186;2022-12-07T14:50:36;354.15;;;322.35;;
40088;SDS011;25793;55.706;13.186;2022-12-07T14:53:27;376.63;;;342.95;;
40088;SDS011;25793;55.706;13.186;2022-12-07T14:55:57;355.00;;;323.42;;
40088;SDS011;25793;55.706;13.186;2022-12-07T14:58:23;336.17;;;305.37;;
40088;SDS011;25793;55.706;13.186;2022-12-07T15:00:50;335.35;;;304.58;;
40088;SDS011;25793;55.706;13.186;2022-12-07T15:03:17;325.42;;;294.63;;
40088;SDS011;25793;55.706;13.186;2022-12-07T15:05:44;358.55;;;326.00;;
40088;SDS011;25793;55.706;13.186;2022-12-07T15:08:13;351.17;;;319.88;;
40088;SDS011;25793;55.706;13.186;2022-12-07T15:10:41;351.85;;;320.35;;
40088;SDS011;25793;55.706;13.186;2022-12-07T15:13:08;336.85;;;306.25;;
40088;SDS011;25793;55.706;13.186;2022-12-07T15:15:54;331.70;;;301.52;;
40088;SDS011;25793;55.706;13.186;2022-12-07T15:18:22;342.58;;;311.98;;
40088;SDS011;25793;55.706;13.186;2022-12-07T15:20:50;336.55;;;306.45;;
40088;SDS011;25793;55.706;13.186;2022-12-07T15:23:16;329.17;;;299.38;;
40088;SDS011;25793;55.706;13.186;2022-12-07T15:25:43;324.07;;;294.43;;
40088;SDS011;25793;55.706;13.186;2022-12-07T15:28:12;325.63;;;295.73;;
40088;SDS011;25793;55.706;13.186;2022-12-07T15:30:40;329.77;;;299.83;;
40088;SDS011;25793;55.706;13.186;2022-12-07T15:33:09;320.75;;;291.13;;
40088;SDS011;25793;55.706;13.186;2022-12-07T15:35:43;313.73;;;284.43;;
40088;SDS011;25793;55.706;13.186;2022-12-07T15:38:11;320.73;;;291.27;;
40088;SDS011;25793;55.706;13.186;2022-12-07T15:40:38;332.52;;;302.42;;
40088;SDS011;25793;55.706;13.186;2022-12-07T15:43:05;336.35;;;306.05;;
40088;SDS011;25793;55.706;13.186;2022-12-07T15:45:55;335.40;;;304.92;;
40088;SDS011;25793;55.706;13.186;2022-12-07T15:48:22;330.52;;;300.13;;
40088;SDS011;25793;55.706;13.186;2022-12-07T15:51:00;350.35;;;319.17;;
40088;SDS011;25793;55.706;13.186;2022-12-07T15:53:34;357.58;;;325.98;;
40088;SDS011;25793;55.706;13.186;2022-12-07T15:56:05;355.27;;;323.70;;
40088;SDS011;25793;55.706;13.186;2022-12-07T15:58:33;342.38;;;311.13;;
40088;SDS011;25793;55.706;13.186;2022-12-07T16:01:00;336.47;;;305.77;;
40088;SDS011;25793;55.706;13.186;2022-12-07T16:03:27;325.83;;;295.80;;
40088;SDS011;25793;55.706;13.186;2022-12-07T16:05:53;328.92;;;298.70;;
40088;SDS011;25793;55.706;13.186;2022-12-07T16:08:20;335.42;;;304.88;;
40088;SDS011;25793;55.706;13.186;2022-12-07T16:10:47;326.08;;;296.08;;
40088;SDS011;25793;55.706;13.186;2022-12-07T16:13:14;339.73;;;309.20;;
40088;SDS011;25793;55.706;13.186;2022-12-07T16:15:41;332.70;;;302.73;;
40088;SDS011;25793;55.706;13.186;2022-12-07T16:18:09;347.33;;;316.23;;
40088;SDS011;25793;55.706;13.186;2022-12-07T16:20:35;344.40;;;312.48;;